sensor_id;sensor_type;location;lat;lon;timestamp;P1;durP1;ratioP1;P2;durP2;ratioP2
3943;SDS011;1986;52.546;13.428;2023-12-04T00:00:15;0.80;;;0.80;;
3943;SDS011;1986;52.546;13.428;2023-12-04T00:02:46;0.90;;;0.90;;
3943;SDS011;1986;52.546;13.428;2023-12-04T00:05:14;0.80;;;0.80;;
3943;SDS011;1986;52.546;13.428;2023-12-04T00:07:41;0.80;;;0.80;;
3943;SDS011;1986;52.546;13.428;2023-12-04T00:10:10;0.63;;;0.63;;
3943;SDS011;1986;52.546;13.428;2023-12-04T00:12:39;0.70;;;0.70;;
3943;SDS011;1986;52.546;13.428;2023-12-04T00:15:06;0.70;;;0.70;;
3943;SDS011;1986;52.546;13.428;2023-12-04T00:17:36;0.70;;;0.70;;
3943;SDS011;1986;52.546;13.428;2023-12-04T00:20:05;0.80;;;0.80;;
3943;SDS011;1986;52.546;13.428;2023-12-04T00:22:34;0.80;;;0.80;;
3943;SDS011;1986;52.546;13.428;2023-12-04T00:25:02;0.70;;;0.70;;
3943;SDS011;1986;52.546;13.428;2023-12-04T00:27:29;0.80;;;0.80;;
3943;SDS011;1986;52.546;13.428;2023-12-04T00:29:57;0.77;;;0.77;;
3943;SDS011;1986;52.546;13.428;2023-12-04T00:32:24;0.70;;;0.70;;
3943;SDS011;1986;52.546;13.428;2023-12-04T00:34:54;0.70;;;0.70;;
3943;SDS011;1986;52.546;13.428;2023-12-04T00:37:22;0.80;;;0.80;;
3943;SDS011;1986;52.546;13.428;2023-12-04T00:39:51;0.70;;;0.70;;
3943;SDS011;1986;52.546;13.428;2023-12-04T00:42:18;0.67;;;0.67;;
3943;SDS011;1986;52.546;13.428;2023-12-04T00:44:46;0.60;;;0.60;;
3943;SDS011;1986;52.546;13.428;2023-12-04T00:47:15;0.57;;;0.57;;
3943;SDS011;1986;52.546;13.428;2023-12-04T00:49:43;0.60;;;0.60;;
3943;SDS011;1986;52.546;13.428;2023-12-04T00:52:10;0.60;;;0.60;;
3943;SDS011;1986;52.546;13.428;2023-12-04T00:54:38;0.53;;;0.53;;
3943;SDS011;1986;52.546;13.428;2023-12-04T00:57:06;0.50;;;0.50;;
3943;SDS011;1986;52.546;13.428;2023-12-04T00:59:34;0.40;;;0.40;;
3943;SDS011;1986;52.546;13.428;2023-12-04T01:02:05;0.50;;;0.50;;
3943;SDS011;1986;52.546;13.428;2023-12-04T01:04:34;0.50;;;0.50;;
3943;SDS011;1986;52.546;13.428;2023-12-04T01:07:02;0.50;;;0.50;;
3943;SDS011;1986;52.546;13.428;2023-12-04T01:09:30;0.50;;;0.50;;
3943;SDS011;1986;52.546;13.428;2023-12-04T01:11:57;0.43;;;0.43;;
3943;SDS011;1986;52.546;13.428;2023-12-04T01:14:24;0.40;;;0.40;;
3943;SDS011;1986;52.546;13.428;2023-12-04T01:16:54;0.40;;;0.40;;
3943;SDS011;1986;52.546;13.428;2023-12-04T01:19:21;0.40;;;0.40;;
3943;SDS011;1986;52.546;13.428;2023-12-04T01:21:49;0.40;;;0.40;;
3943;SDS011;1986;52.546;13.428;2023-12-04T01:24:16;0.30;;;0.30;;
3943;SDS011;1986;52.546;13.428;2023-12-04T01:26:44;0.30;;;0.30;;
3943;SDS011;1986;52.546;13.428;2023-12-04T01:29:11;0.30;;;0.30;;
3943;SDS011;1986;52.546;13.428;2023-12-04T01:31:39;0.30;;;0.30;;
3943;SDS011;1986;52.546;13.428;2023-12-04T01:34:05;0.30;;;0.30;;
3943;SDS011;1986;52.546;13.428;2023-12-04T01:36:32;0.30;;;0.30;;
3943;SDS011;1986;52.546;13.428;2023-12-04T01:39:00;0.20;;;0.20;;
3943;SDS011;1986;52.546;13.428;2023-12-04T01:41:29;0.30;;;0.30;;
3943;SDS011;1986;52.546;13.428;2023-12-04T01:43:55;0.20;;;0.20;;
3943;SDS011;1986;52.546;13.428;2023-12-04T01:46:23;0.30;;;0.30;;
3943;SDS011;1986;52.546;13.428;2023-12-04T01:48:50;0.30;;;0.30;;
3943;SDS011;1986;52.546;13.428;2023-12-04T01:51:17;0.20;;;0.20;;
3943;SDS011;1986;52.546;13.428;2023-12-04T01:53:44;0.20;;;0.20;;
3943;SDS011;1986;52.546;13.428;2023-12-04T01:56:13;0.20;;;0.20;;
3943;SDS011;1986;52.546;13.428;2023-12-04T01:58:43;0.20;;;0.20;;
3943;SDS011;1986;52.546;13.428;2023-12-04T02:01:10;0.20;;;0.20;;
3943;SDS011;1986;52.546;13.428;2023-12-04T02:03:38;0.20;;;0.20;;
3943;SDS011;1986;52.546;13.428;2023-12-04T02:06:07;0.30;;;0.30;;
3943;SDS011;1986;52.546;13.428;2023-12-04T02:08:35;0.20;;;0.20;;
3943;SDS011;1986;52.546;13.428;2023-12-04T02:11:02;0.20;;;0.20;;
3943;SDS011;1986;52.546;13.428;2023-12-04T02:13:34;0.20;;;0.20;;
3943;SDS011;1986;52.546;13.428;2023-12-04T02:16:09;0.20;;;0.20;;
3943;SDS011;1986;52.546;13.428;2023-12-04T02:18:38;0.20;;;0.20;;
3943;SDS011;1986;52.546;13.428;2023-12-04T02:21:06;0.20;;;0.20;;
3943;SDS011;1986;52.546;13.428;2023-12-04T02:23:33;0.20;;;0.20;;
3943;SDS011;1986;52.546;13.428;2023-12-04T02:26:03;0.10;;;0.10;;
3943;SDS011;1986;52.546;13.428;2023-12-04T02:28:36;0.20;;;0.20;;
3943;SDS011;1986;52.546;13.428;2023-12-04T02:31:04;0.20;;;0.20;;
3943;SDS011;1986;52.546;13.428;2023-12-04T02:33:33;0.20;;;0.20;;
3943;SDS011;1986;52.546;13.428;2023-12-04T02:36:04;0.20;;;0.20;;
3943;SDS011;1986;52.546;13.428;2023-12-04T02:38:33;0.20;;;0.20;;
3943;SDS011;1986;52.546;13.428;2023-12-04T02:41:01;0.20;;;0.20;;
3943;SDS011;1986;52.546;13.428;2023-12-04T02:43:30;0.20;;;0.20;;
3943;SDS011;1986;52.546;13.428;2023-12-04T02:45:58;0.20;;;0.20;;
3943;SDS011;1986;52.546;13.428;2023-12-04T02:48:27;0.20;;;0.20;;
3943;SDS011;1986;52.546;13.428;2023-12-04T02:50:56;0.20;;;0.20;;
3943;SDS011;1986;52.546;13.428;2023-12-04T02:53:23;0.20;;;0.20;;
3943;SDS011;1986;52.546;13.428;2023-12-04T02:55:50;0.20;;;0.20;;
3943;SDS011;1986;52.546;13.428;2023-12-04T02:58:21;0.20;;;0.20;;
3943;SDS011;1986;52.546;13.428;2023-12-04T03:00:48;0.20;;;0.20;;
3943;SDS011;1986;52.546;13.428;2023-12-04T03:03:15;0.20;;;0.20;;
3943;SDS011;1986;52.546;13.428;2023-12-04T03:05:42;0.20;;;0.20;;
3943;SDS011;1986;52.546;13.428;2023-12-04T03:08:09;0.20;;;0.20;;
3943;SDS011;1986;52.546;13.428;2023-12-04T03:10:36;0.20;;;0.20;;
3943;SDS011;1986;52.546;13.428;2023-12-04T03:13:02;0.20;;;0.20;;
3943;SDS011;1986;52.546;13.428;2023-12-04T03:15:34;0.20;;;0.20;;
3943;SDS011;1986;52.546;13.428;2023-12-04T03:18:02;0.20;;;0.20;;
3943;SDS011;1986;52.546;13.428;2023-12-04T03:20:29;0.20;;;0.20;;
3943;SDS011;1986;52.546;13.428;2023-12-04T03:22:58;0.20;;;0.20;;
3943;SDS011;1986;52.546;13.428;2023-12-04T03:25:25;0.20;;;0.20;;
3943;SDS011;1986;52.546;13.428;2023-12-04T03:27:52;0.20;;;0.20;;
3943;SDS011;1986;52.546;13.428;2023-12-04T03:30:18;0.20;;;0.20;;
3943;SDS011;1986;52.546;13.428;2023-12-04T03:32:47;0.20;;;0.20;;
3943;SDS011;1986;52.546;13.428;2023-12-04T03:35:14;0.30;;;0.30;;
3943;SDS011;1986;52.546;13.428;2023-12-04T03:37:41;0.20;;;0.20;;
3943;SDS011;1986;52.546;13.428;2023-12-04T03:40:08;0.20;;;0.20;;
3943;SDS011;1986;52.546;13.428;2023-12-04T03:42:37;0.20;;;0.20;;
3943;SDS011;1986;52.546;13.428;2023-12-04T03:45:06;0.20;;;0.20;;
3943;SDS011;1986;52.546;13.428;2023-12-04T03:47:35;0.20;;;0.20;;
3943;SDS011;1986;52.546;13.428;2023-12-04T03:50:03;0.30;;;0.30;;
3943;SDS011;1986;52.546;13.428;2023-12-04T03:52:32;0.27;;;0.27;;
3943;SDS011;1986;52.546;13.428;2023-12-04T03:54:59;0.20;;;0.20;;
3943;SDS011;1986;52.546;13.428;2023-12-04T03:57:26;0.20;;;0.20;;
3943;SDS011;1986;52.546;13.428;2023-12-04T03:59:52;0.20;;;0.20;;
3943;SDS011;1986;52.546;13.428;2023-12-04T04:02:21;0.20;;;0.20;;
3943;SDS011;1986;52.546;13.428;2023-12-04T04:04:48;0.27;;;0.27;;
3943;SDS011;1986;52.546;13.428;2023-12-04T04:07:17;0.20;;;0.20;;
3943;SDS011;1986;52.546;13.428;2023-12-04T04:09:44;0.30;;;0.30;;
3943;SDS011;1986;52.546;13.428;2023-12-04T04:12:11;0.30;;;0.30;;
3943;SDS011;1986;52.546;13.428;2023-12-04T04:14:37;0.30;;;0.30;;
3943;SDS011;1986;52.546;13.428;2023-12-04T04:17:04;0.30;;;0.30;;
3943;SDS011;1986;52.546;13.428;2023-12-04T04:19:33;0.30;;;0.30;;
3943;SDS011;1986;52.546;13.428;2023-12-04T04:21:59;0.30;;;0.30;;
3943;SDS011;1986;52.546;13.428;2023-12-04T04:24:28;0.30;;;0.30;;
3943;SDS011;1986;52.546;13.428;2023-12-04T04:26:55;0.40;;;0.40;;
3943;SDS011;1986;52.546;13.428;2023-12-04T04:29:22;0.40;;;0.40;;
3943;SDS011;1986;52.546;13.428;2023-12-04T04:31:49;0.30;;;0.30;;
3943;SDS011;1986;52.546;13.428;2023-12-04T04:34:16;0.40;;;0.40;;
3943;SDS011;1986;52.546;13.428;2023-12-04T04:36:43;0.40;;;0.40;;
3943;SDS011;1986;52.546;13.428;2023-12-04T04:39:11;0.50;;;0.50;;
3943;SDS011;1986;52.546;13.428;2023-12-04T04:41:41;0.50;;;0.50;;
3943;SDS011;1986;52.546;13.428;2023-12-04T04:44:08;0.50;;;0.50;;
3943;SDS011;1986;52.546;13.428;2023-12-04T04:46:35;0.50;;;0.50;;
3943;SDS011;1986;52.546;13.428;2023-12-04T04:49:04;0.50;;;0.50;;
3943;SDS011;1986;52.546;13.428;2023-12-04T04:51:32;0.70;;;0.70;;
3943;SDS011;1986;52.546;13.428;2023-12-04T04:53:59;0.60;;;0.60;;
3943;SDS011;1986;52.546;13.428;2023-12-04T04:56:26;0.70;;;0.70;;
3943;SDS011;1986;52.546;13.428;2023-12-04T04:58:55;0.80;;;0.80;;
3943;SDS011;1986;52.546;13.428;2023-12-04T05:01:23;0.70;;;0.70;;
3943;SDS011;1986;52.546;13.428;2023-12-04T05:03:50;0.70;;;0.70;;
3943;SDS011;1986;52.546;13.428;2023-12-04T05:06:17;0.80;;;0.80;;
3943;SDS011;1986;52.546;13.428;2023-12-04T05:08:47;0.90;;;0.90;;
3943;SDS011;1986;52.546;13.428;2023-12-04T05:11:17;0.90;;;0.90;;
3943;SDS011;1986;52.546;13.428;2023-12-04T05:13:44;0.90;;;0.90;;
3943;SDS011;1986;52.546;13.428;2023-12-04T05:16:16;1.00;;;1.00;;
3943;SDS011;1986;52.546;13.428;2023-12-04T05:18:43;1.00;;;1.00;;
3943;SDS011;1986;52.546;13.428;2023-12-04T05:21:10;1.10;;;1.10;;
3943;SDS011;1986;52.546;13.428;2023-12-04T05:23:40;1.00;;;1.00;;
3943;SDS011;1986;52.546;13.428;2023-12-04T05:26:08;1.20;;;1.20;;
3943;SDS011;1986;52.546;13.428;2023-12-04T05:28:35;1.60;;;1.60;;
3943;SDS011;1986;52.546;13.428;2023-12-04T05:31:05;1.70;;;1.70;;
3943;SDS011;1986;52.546;13.428;2023-12-04T05:33:34;2.00;;;2.00;;
3943;SDS011;1986;52.546;13.428;2023-12-04T05:36:02;1.70;;;1.70;;
3943;SDS011;1986;52.546;13.428;2023-12-04T05:38:30;2.03;;;2.03;;
3943;SDS011;1986;52.546;13.428;2023-12-04T05:40:57;2.00;;;2.00;;
3943;SDS011;1986;52.546;13.428;2023-12-04T05:43:24;2.20;;;2.20;;
3943;SDS011;1986;52.546;13.428;2023-12-04T05:45:56;2.20;;;2.20;;
3943;SDS011;1986;52.546;13.428;2023-12-04T05:48:23;2.10;;;2.10;;
3943;SDS011;1986;52.546;13.428;2023-12-04T05:50:52;2.00;;;2.00;;
3943;SDS011;1986;52.546;13.428;2023-12-04T05:53:19;2.20;;;2.20;;
3943;SDS011;1986;52.546;13.428;2023-12-04T05:55:46;1.97;;;1.97;;
3943;SDS011;1986;52.546;13.428;2023-12-04T05:58:12;2.20;;;2.20;;
3943;SDS011;1986;52.546;13.428;2023-12-04T06:00:40;1.90;;;1.90;;
3943;SDS011;1986;52.546;13.428;2023-12-04T06:03:08;1.70;;;1.70;;
3943;SDS011;1986;52.546;13.428;2023-12-04T06:05:37;2.20;;;2.20;;
3943;SDS011;1986;52.546;13.428;2023-12-04T06:08:07;1.90;;;1.90;;
3943;SDS011;1986;52.546;13.428;2023-12-04T06:10:34;1.80;;;1.80;;
3943;SDS011;1986;52.546;13.428;2023-12-04T06:13:10;1.10;;;1.10;;
3943;SDS011;1986;52.546;13.428;2023-12-04T06:15:37;1.10;;;1.10;;
3943;SDS011;1986;52.546;13.428;2023-12-04T06:18:05;1.50;;;1.50;;
3943;SDS011;1986;52.546;13.428;2023-12-04T06:20:39;1.50;;;1.50;;
3943;SDS011;1986;52.546;13.428;2023-12-04T06:23:08;1.30;;;1.30;;
3943;SDS011;1986;52.546;13.428;2023-12-04T06:25:38;1.50;;;1.50;;
3943;SDS011;1986;52.546;13.428;2023-12-04T06:28:05;1.40;;;1.40;;
3943;SDS011;1986;52.546;13.428;2023-12-04T06:30:34;1.30;;;1.30;;
3943;SDS011;1986;52.546;13.428;2023-12-04T06:33:01;1.00;;;1.00;;
3943;SDS011;1986;52.546;13.428;2023-12-04T06:35:29;1.60;;;1.60;;
3943;SDS011;1986;52.546;13.428;2023-12-04T06:37:56;2.20;;;2.20;;
3943;SDS011;1986;52.546;13.428;2023-12-04T06:40:31;2.30;;;2.30;;
3943;SDS011;1986;52.546;13.428;2023-12-04T06:43:00;2.27;;;2.27;;
3943;SDS011;1986;52.546;13.428;2023-12-04T06:45:28;2.27;;;2.27;;
3943;SDS011;1986;52.546;13.428;2023-12-04T06:47:57;2.10;;;2.10;;
3943;SDS011;1986;52.546;13.428;2023-12-04T06:50:26;2.10;;;2.10;;
3943;SDS011;1986;52.546;13.428;2023-12-04T06:52:53;2.10;;;2.10;;
3943;SDS011;1986;52.546;13.428;2023-12-04T06:55:20;2.00;;;2.00;;
3943;SDS011;1986;52.546;13.428;2023-12-04T06:57:51;2.10;;;2.10;;
3943;SDS011;1986;52.546;13.428;2023-12-04T07:00:21;2.23;;;2.23;;
3943;SDS011;1986;52.546;13.428;2023-12-04T07:02:50;2.17;;;2.17;;
3943;SDS011;1986;52.546;13.428;2023-12-04T07:05:19;1.90;;;1.90;;
3943;SDS011;1986;52.546;13.428;2023-12-04T07:07:46;2.20;;;2.20;;
3943;SDS011;1986;52.546;13.428;2023-12-04T07:10:17;2.60;;;2.60;;
3943;SDS011;1986;52.546;13.428;2023-12-04T07:12:45;2.77;;;2.77;;
3943;SDS011;1986;52.546;13.428;2023-12-04T07:15:15;2.50;;;2.50;;
3943;SDS011;1986;52.546;13.428;2023-12-04T07:17:43;2.57;;;2.57;;
3943;SDS011;1986;52.546;13.428;2023-12-04T07:20:12;2.70;;;2.70;;
3943;SDS011;1986;52.546;13.428;2023-12-04T07:22:42;2.70;;;2.70;;
3943;SDS011;1986;52.546;13.428;2023-12-04T07:25:09;2.80;;;2.80;;
3943;SDS011;1986;52.546;13.428;2023-12-04T07:27:36;2.70;;;2.70;;
3943;SDS011;1986;52.546;13.428;2023-12-04T07:30:04;2.70;;;2.70;;
3943;SDS011;1986;52.546;13.428;2023-12-04T07:32:34;2.73;;;2.73;;
3943;SDS011;1986;52.546;13.428;2023-12-04T07:35:01;2.80;;;2.80;;
3943;SDS011;1986;52.546;13.428;2023-12-04T07:37:28;2.70;;;2.70;;
3943;SDS011;1986;52.546;13.428;2023-12-04T07:39:56;3.03;;;3.03;;
3943;SDS011;1986;52.546;13.428;2023-12-04T07:42:26;3.10;;;3.10;;
3943;SDS011;1986;52.546;13.428;2023-12-04T07:44:52;3.20;;;3.20;;
3943;SDS011;1986;52.546;13.428;2023-12-04T07:47:25;2.97;;;2.97;;
3943;SDS011;1986;52.546;13.428;2023-12-04T07:49:55;2.90;;;2.90;;
3943;SDS011;1986;52.546;13.428;2023-12-04T07:52:22;2.90;;;2.90;;
3943;SDS011;1986;52.546;13.428;2023-12-04T07:54:50;3.00;;;3.00;;
3943;SDS011;1986;52.546;13.428;2023-12-04T07:57:17;3.10;;;3.10;;
3943;SDS011;1986;52.546;13.428;2023-12-04T07:59:44;3.10;;;3.10;;
3943;SDS011;1986;52.546;13.428;2023-12-04T08:02:13;3.10;;;3.10;;
3943;SDS011;1986;52.546;13.428;2023-12-04T08:04:40;3.17;;;3.17;;
3943;SDS011;1986;52.546;13.428;2023-12-04T08:07:10;2.80;;;2.80;;
3943;SDS011;1986;52.546;13.428;2023-12-04T08:09:40;3.00;;;3.00;;
3943;SDS011;1986;52.546;13.428;2023-12-04T08:12:08;3.30;;;3.30;;
3943;SDS011;1986;52.546;13.428;2023-12-04T08:14:36;3.20;;;3.20;;
3943;SDS011;1986;52.546;13.428;2023-12-04T08:17:05;3.27;;;3.27;;
3943;SDS011;1986;52.546;13.428;2023-12-04T08:19:33;3.30;;;3.30;;
3943;SDS011;1986;52.546;13.428;2023-12-04T08:22:03;3.70;;;3.70;;
3943;SDS011;1986;52.546;13.428;2023-12-04T08:24:32;3.80;;;3.80;;
3943;SDS011;1986;52.546;13.428;2023-12-04T08:26:59;4.03;;;4.03;;
3943;SDS011;1986;52.546;13.428;2023-12-04T08:29:26;3.77;;;3.77;;
3943;SDS011;1986;52.546;13.428;2023-12-04T08:31:54;3.93;;;3.93;;
3943;SDS011;1986;52.546;13.428;2023-12-04T08:34:21;3.80;;;3.80;;
3943;SDS011;1986;52.546;13.428;2023-12-04T08:36:49;4.10;;;4.10;;
3943;SDS011;1986;52.546;13.428;2023-12-04T08:39:16;3.70;;;3.70;;
3943;SDS011;1986;52.546;13.428;2023-12-04T08:41:46;3.90;;;3.90;;
3943;SDS011;1986;52.546;13.428;2023-12-04T08:44:13;3.90;;;3.90;;
3943;SDS011;1986;52.546;13.428;2023-12-04T08:46:41;4.10;;;4.10;;
3943;SDS011;1986;52.546;13.428;2023-12-04T08:49:11;4.20;;;4.20;;
3943;SDS011;1986;52.546;13.428;2023-12-04T08:51:40;4.47;;;4.47;;
3943;SDS011;1986;52.546;13.428;2023-12-04T08:54:08;4.20;;;4.20;;
3943;SDS011;1986;52.546;13.428;2023-12-04T08:56:35;4.60;;;4.60;;
3943;SDS011;1986;52.546;13.428;2023-12-04T08:59:06;4.60;;;4.60;;
3943;SDS011;1986;52.546;13.428;2023-12-04T09:01:33;4.47;;;4.47;;
3943;SDS011;1986;52.546;13.428;2023-12-04T09:04:01;4.70;;;4.70;;
3943;SDS011;1986;52.546;13.428;2023-12-04T09:06:29;4.90;;;4.90;;
3943;SDS011;1986;52.546;13.428;2023-12-04T09:08:56;4.90;;;4.90;;
3943;SDS011;1986;52.546;13.428;2023-12-04T09:11:24;5.40;;;5.40;;
3943;SDS011;1986;52.546;13.428;2023-12-04T09:13:51;5.00;;;5.00;;
3943;SDS011;1986;52.546;13.428;2023-12-04T09:16:20;5.10;;;5.10;;
3943;SDS011;1986;52.546;13.428;2023-12-04T09:18:49;5.03;;;5.03;;
3943;SDS011;1986;52.546;13.428;2023-12-04T09:21:19;5.40;;;5.40;;
3943;SDS011;1986;52.546;13.428;2023-12-04T09:23:46;5.20;;;5.20;;
3943;SDS011;1986;52.546;13.428;2023-12-04T09:26:15;5.70;;;5.70;;
3943;SDS011;1986;52.546;13.428;2023-12-04T09:28:42;5.50;;;5.50;;
3943;SDS011;1986;52.546;13.428;2023-12-04T09:31:09;5.43;;;5.43;;
3943;SDS011;1986;52.546;13.428;2023-12-04T09:33:38;5.20;;;5.20;;
3943;SDS011;1986;52.546;13.428;2023-12-04T09:36:06;5.80;;;5.80;;
3943;SDS011;1986;52.546;13.428;2023-12-04T09:38:35;5.20;;;5.20;;
3943;SDS011;1986;52.546;13.428;2023-12-04T09:41:04;5.80;;;5.80;;
3943;SDS011;1986;52.546;13.428;2023-12-04T09:43:35;5.10;;;5.10;;
3943;SDS011;1986;52.546;13.428;2023-12-04T09:46:03;5.90;;;5.90;;
3943;SDS011;1986;52.546;13.428;2023-12-04T09:48:30;5.67;;;5.67;;
3943;SDS011;1986;52.546;13.428;2023-12-04T09:51:00;6.00;;;6.00;;
3943;SDS011;1986;52.546;13.428;2023-12-04T09:53:31;5.93;;;5.93;;
3943;SDS011;1986;52.546;13.428;2023-12-04T09:56:02;6.20;;;6.20;;
3943;SDS011;1986;52.546;13.428;2023-12-04T09:58:31;5.90;;;5.90;;
3943;SDS011;1986;52.546;13.428;2023-12-04T10:00:59;6.10;;;6.10;;
3943;SDS011;1986;52.546;13.428;2023-12-04T10:03:27;6.20;;;6.20;;
3943;SDS011;1986;52.546;13.428;2023-12-04T10:05:55;6.90;;;6.90;;
3943;SDS011;1986;52.546;13.428;2023-12-04T10:08:24;7.10;;;7.10;;
3943;SDS011;1986;52.546;13.428;2023-12-04T10:10:51;6.90;;;6.90;;
3943;SDS011;1986;52.546;13.428;2023-12-04T10:13:20;7.30;;;7.30;;
3943;SDS011;1986;52.546;13.428;2023-12-04T10:15:50;7.30;;;7.30;;
3943;SDS011;1986;52.546;13.428;2023-12-04T10:18:24;7.13;;;7.13;;
3943;SDS011;1986;52.546;13.428;2023-12-04T10:20:53;7.20;;;7.20;;
3943;SDS011;1986;52.546;13.428;2023-12-04T10:23:21;6.90;;;6.90;;
3943;SDS011;1986;52.546;13.428;2023-12-04T10:26:03;7.50;;;7.50;;
3943;SDS011;1986;52.546;13.428;2023-12-04T10:28:31;7.70;;;7.70;;
3943;SDS011;1986;52.546;13.428;2023-12-04T10:30:58;7.70;;;7.70;;
3943;SDS011;1986;52.546;13.428;2023-12-04T10:33:31;7.40;;;7.40;;
3943;SDS011;1986;52.546;13.428;2023-12-04T10:35:58;7.80;;;7.80;;
3943;SDS011;1986;52.546;13.428;2023-12-04T10:38:29;8.20;;;8.10;;
3943;SDS011;1986;52.546;13.428;2023-12-04T10:40:57;7.70;;;7.70;;
3943;SDS011;1986;52.546;13.428;2023-12-04T10:43:46;8.10;;;8.00;;
3943;SDS011;1986;52.546;13.428;2023-12-04T10:46:14;8.30;;;8.20;;
3943;SDS011;1986;52.546;13.428;2023-12-04T10:48:44;8.33;;;8.23;;
3943;SDS011;1986;52.546;13.428;2023-12-04T10:51:13;7.87;;;7.87;;
3943;SDS011;1986;52.546;13.428;2023-12-04T10:53:44;8.30;;;8.20;;
3943;SDS011;1986;52.546;13.428;2023-12-04T10:56:14;7.90;;;7.90;;
3943;SDS011;1986;52.546;13.428;2023-12-04T10:58:46;8.27;;;8.17;;
3943;SDS011;1986;52.546;13.428;2023-12-04T11:01:16;7.80;;;7.80;;
3943;SDS011;1986;52.546;13.428;2023-12-04T11:03:44;8.70;;;8.60;;
3943;SDS011;1986;52.546;13.428;2023-12-04T11:06:16;8.33;;;8.23;;
3943;SDS011;1986;52.546;13.428;2023-12-04T11:08:46;8.30;;;8.20;;
3943;SDS011;1986;52.546;13.428;2023-12-04T11:11:18;7.90;;;7.90;;
3943;SDS011;1986;52.546;13.428;2023-12-04T11:13:49;8.70;;;8.60;;
3943;SDS011;1986;52.546;13.428;2023-12-04T11:16:23;8.70;;;8.60;;
3943;SDS011;1986;52.546;13.428;2023-12-04T11:18:56;8.70;;;8.60;;
3943;SDS011;1986;52.546;13.428;2023-12-04T11:21:29;9.10;;;9.00;;
3943;SDS011;1986;52.546;13.428;2023-12-04T11:24:02;9.10;;;9.00;;
3943;SDS011;1986;52.546;13.428;2023-12-04T11:26:31;9.00;;;8.90;;
3943;SDS011;1986;52.546;13.428;2023-12-04T11:29:00;8.90;;;8.80;;
3943;SDS011;1986;52.546;13.428;2023-12-04T11:31:29;9.30;;;9.20;;
3943;SDS011;1986;52.546;13.428;2023-12-04T11:34:01;9.40;;;9.30;;
3943;SDS011;1986;52.546;13.428;2023-12-04T11:36:29;9.17;;;9.07;;
3943;SDS011;1986;52.546;13.428;2023-12-04T11:39:05;9.20;;;9.10;;
3943;SDS011;1986;52.546;13.428;2023-12-04T11:41:35;9.60;;;9.50;;
3943;SDS011;1986;52.546;13.428;2023-12-04T11:44:03;9.60;;;9.50;;
3943;SDS011;1986;52.546;13.428;2023-12-04T11:46:54;9.70;;;9.60;;
3943;SDS011;1986;52.546;13.428;2023-12-04T11:49:27;9.90;;;9.80;;
3943;SDS011;1986;52.546;13.428;2023-12-04T11:51:56;9.40;;;9.30;;
3943;SDS011;1986;52.546;13.428;2023-12-04T11:54:25;9.40;;;9.30;;
3943;SDS011;1986;52.546;13.428;2023-12-04T11:56:59;9.40;;;9.30;;
3943;SDS011;1986;52.546;13.428;2023-12-04T11:59:27;9.70;;;9.60;;
3943;SDS011;1986;52.546;13.428;2023-12-04T12:01:55;9.90;;;9.80;;
3943;SDS011;1986;52.546;13.428;2023-12-04T12:04:23;9.90;;;9.80;;
3943;SDS011;1986;52.546;13.428;2023-12-04T12:06:56;9.90;;;9.80;;
3943;SDS011;1986;52.546;13.428;2023-12-04T12:09:28;10.30;;;10.20;;
3943;SDS011;1986;52.546;13.428;2023-12-04T12:11:56;10.03;;;9.93;;
3943;SDS011;1986;52.546;13.428;2023-12-04T12:14:26;9.90;;;9.80;;
3943;SDS011;1986;52.546;13.428;2023-12-04T12:16:54;9.93;;;9.83;;
3943;SDS011;1986;52.546;13.428;2023-12-04T12:19:22;10.70;;;10.60;;
3943;SDS011;1986;52.546;13.428;2023-12-04T12:21:49;10.43;;;10.33;;
3943;SDS011;1986;52.546;13.428;2023-12-04T12:24:17;10.13;;;10.03;;
3943;SDS011;1986;52.546;13.428;2023-12-04T12:26:51;10.10;;;10.00;;
3943;SDS011;1986;52.546;13.428;2023-12-04T12:29:21;10.20;;;10.10;;
3943;SDS011;1986;52.546;13.428;2023-12-04T12:31:49;10.00;;;9.90;;
3943;SDS011;1986;52.546;13.428;2023-12-04T12:34:17;10.00;;;9.90;;
3943;SDS011;1986;52.546;13.428;2023-12-04T12:36:45;10.37;;;10.27;;
3943;SDS011;1986;52.546;13.428;2023-12-04T12:39:12;10.30;;;10.20;;
3943;SDS011;1986;52.546;13.428;2023-12-04T12:41:46;10.50;;;10.40;;
3943;SDS011;1986;52.546;13.428;2023-12-04T12:44:16;9.30;;;9.20;;
3943;SDS011;1986;52.546;13.428;2023-12-04T12:46:46;9.70;;;9.60;;
3943;SDS011;1986;52.546;13.428;2023-12-04T12:49:15;10.00;;;9.90;;
3943;SDS011;1986;52.546;13.428;2023-12-04T12:51:51;10.10;;;10.00;;
3943;SDS011;1986;52.546;13.428;2023-12-04T12:57:19;10.50;;;10.40;;
3943;SDS011;1986;52.546;13.428;2023-12-04T12:59:49;10.10;;;10.00;;
3943;SDS011;1986;52.546;13.428;2023-12-04T13:02:17;9.90;;;9.80;;
3943;SDS011;1986;52.546;13.428;2023-12-04T13:04:48;10.00;;;9.90;;
3943;SDS011;1986;52.546;13.428;2023-12-04T13:07:17;9.80;;;9.70;;
3943;SDS011;1986;52.546;13.428;2023-12-04T13:09:46;9.70;;;9.60;;
3943;SDS011;1986;52.546;13.428;2023-12-04T13:12:13;9.63;;;9.53;;
3943;SDS011;1986;52.546;13.428;2023-12-04T13:14:41;9.80;;;9.70;;
3943;SDS011;1986;52.546;13.428;2023-12-04T13:17:09;9.50;;;9.40;;
3943;SDS011;1986;52.546;13.428;2023-12-04T13:19:36;9.70;;;9.60;;
3943;SDS011;1986;52.546;13.428;2023-12-04T13:22:03;9.70;;;9.60;;
3943;SDS011;1986;52.546;13.428;2023-12-04T13:24:29;9.40;;;9.30;;
3943;SDS011;1986;52.546;13.428;2023-12-04T13:26:56;9.50;;;9.40;;
3943;SDS011;1986;52.546;13.428;2023-12-04T13:29:29;10.07;;;9.97;;
3943;SDS011;1986;52.546;13.428;2023-12-04T13:32:11;10.20;;;10.10;;
3943;SDS011;1986;52.546;13.428;2023-12-04T13:34:38;9.93;;;9.83;;
3943;SDS011;1986;52.546;13.428;2023-12-04T13:37:10;10.00;;;9.90;;
3943;SDS011;1986;52.546;13.428;2023-12-04T13:39:37;9.83;;;9.73;;
3943;SDS011;1986;52.546;13.428;2023-12-04T13:42:15;9.80;;;9.70;;
3943;SDS011;1986;52.546;13.428;2023-12-04T13:45:01;9.67;;;9.57;;
3943;SDS011;1986;52.546;13.428;2023-12-04T13:47:31;9.70;;;9.60;;
3943;SDS011;1986;52.546;13.428;2023-12-04T13:50:00;9.57;;;9.47;;
3943;SDS011;1986;52.546;13.428;2023-12-04T13:52:27;9.67;;;9.57;;
3943;SDS011;1986;52.546;13.428;2023-12-04T13:54:59;9.70;;;9.60;;
3943;SDS011;1986;52.546;13.428;2023-12-04T13:57:36;9.60;;;9.50;;
3943;SDS011;1986;52.546;13.428;2023-12-04T14:00:15;9.80;;;9.70;;
3943;SDS011;1986;52.546;13.428;2023-12-04T14:02:45;9.50;;;9.40;;
3943;SDS011;1986;52.546;13.428;2023-12-04T14:05:12;9.17;;;9.07;;
3943;SDS011;1986;52.546;13.428;2023-12-04T14:07:42;9.50;;;9.40;;
3943;SDS011;1986;52.546;13.428;2023-12-04T14:10:09;9.10;;;9.00;;
3943;SDS011;1986;52.546;13.428;2023-12-04T14:12:36;9.00;;;8.90;;
3943;SDS011;1986;52.546;13.428;2023-12-04T14:15:05;9.27;;;9.17;;
3943;SDS011;1986;52.546;13.428;2023-12-04T14:17:33;9.30;;;9.20;;
3943;SDS011;1986;52.546;13.428;2023-12-04T14:20:06;9.60;;;9.50;;
3943;SDS011;1986;52.546;13.428;2023-12-04T14:22:38;9.03;;;8.93;;
3943;SDS011;1986;52.546;13.428;2023-12-04T14:25:10;9.20;;;9.10;;
3943;SDS011;1986;52.546;13.428;2023-12-04T14:27:37;9.40;;;9.30;;
3943;SDS011;1986;52.546;13.428;2023-12-04T14:30:10;9.50;;;9.40;;
3943;SDS011;1986;52.546;13.428;2023-12-04T14:32:37;9.60;;;9.50;;
3943;SDS011;1986;52.546;13.428;2023-12-04T14:35:06;9.20;;;9.10;;
3943;SDS011;1986;52.546;13.428;2023-12-04T14:37:34;9.37;;;9.27;;
3943;SDS011;1986;52.546;13.428;2023-12-04T14:40:01;9.30;;;9.20;;
3943;SDS011;1986;52.546;13.428;2023-12-04T14:42:29;9.10;;;9.00;;
3943;SDS011;1986;52.546;13.428;2023-12-04T14:44:57;9.07;;;8.97;;
3943;SDS011;1986;52.546;13.428;2023-12-04T14:47:23;9.10;;;9.00;;
3943;SDS011;1986;52.546;13.428;2023-12-04T14:49:52;8.93;;;8.83;;
3943;SDS011;1986;52.546;13.428;2023-12-04T14:52:22;9.17;;;9.07;;
3943;SDS011;1986;52.546;13.428;2023-12-04T14:54:53;9.27;;;9.17;;
3943;SDS011;1986;52.546;13.428;2023-12-04T14:57:43;9.00;;;8.90;;
3943;SDS011;1986;52.546;13.428;2023-12-04T15:00:41;9.00;;;8.90;;
3943;SDS011;1986;52.546;13.428;2023-12-04T15:03:33;9.00;;;8.90;;
3943;SDS011;1986;52.546;13.428;2023-12-04T15:06:15;9.10;;;9.00;;
3943;SDS011;1986;52.546;13.428;2023-12-04T15:09:16;9.10;;;9.00;;
3943;SDS011;1986;52.546;13.428;2023-12-04T15:12:04;8.90;;;8.80;;
3943;SDS011;1986;52.546;13.428;2023-12-04T15:14:43;8.60;;;8.50;;